Time;durP1;ratioP1;P1;durP2;ratioP2;P2;SDS_P1;SDS_P2;PMS_P1;PMS_P2;Temp;Humidity;BMP_temperature;BMP_pressure;BME280_temperature;BME280_humidity;BME280_pressure;Samples;Min_cycle;Max_cycle;Signal;HPM_P1;HPM_P2
2022/01/28 00:01:25;;;;;;;25.25;4.30;;;;;;;3.96;80.54;100597.38;5050396;28;20039;-75
2022/01/28 00:03:50;;;;;;;25.85;4.88;;;;;;;3.81;80.81;100580.94;5050098;28;20210;-75
2022/01/28 00:06:17;;;;;;;26.73;5.20;;;;;;;3.81;80.70;100597.59;5033414;28;20140;-77
2022/01/28 00:08:43;;;;;;;46.38;4.22;;;;;;;3.85;80.94;100602.66;5034331;28;20036;-76
2022/01/28 00:11:10;;;;;;;35.70;5.17;;;;;;;3.88;80.53;100597.13;5049732;28;20124;-77
2022/01/28 00:13:39;;;;;;;33.50;6.07;;;;;;;3.80;80.45;100573.97;5050180;28;20029;-76
2022/01/28 00:39:41;;;;;;;31.27;4.82;;;;;;;3.82;80.85;100651.28;5051516;28;20896;-76
2022/01/28 00:42:07;;;;;;;24.63;4.07;;;;;;;3.96;80.38;100658.13;5033698;28;20029;-75
2022/01/28 00:44:32;;;;;;;19.92;3.90;;;;;;;3.97;79.83;100641.28;5033728;28;20492;-77
2022/01/28 00:46:58;;;;;;;25.10;4.00;;;;;;;4.00;79.33;100610.19;5051006;28;20029;-76
2022/01/28 00:49:24;;;;;;;30.30;4.30;;;;;;;3.97;78.93;100605.16;5051012;28;20325;-78
2022/01/28 00:51:49;;;;;;;22.00;5.07;;;;;;;3.97;79.04;100599.84;5067335;28;20047;-78
2022/01/28 00:54:17;;;;;;;15.33;3.73;;;;;;;4.02;78.66;100599.50;5051177;28;20029;-78
2022/01/28 00:56:42;;;;;;;21.00;3.83;;;;;;;3.99;78.36;100599.75;5051212;28;20037;-77
2022/01/28 00:59:08;;;;;;;16.30;3.38;;;;;;;3.98;78.28;100579.56;5051040;28;20045;-78
2022/01/28 01:01:33;;;;;;;29.80;5.00;;;;;;;4.05;77.94;100591.34;5034879;28;20044;-76
2022/01/28 01:03:59;;;;;;;33.17;2.80;;;;;;;4.04;77.93;100573.78;5033671;28;20029;-77
2022/01/28 01:06:25;;;;;;;30.95;5.32;;;;;;;4.11;77.37;100579.41;5051318;28;20078;-78
2022/01/28 01:08:51;;;;;;;;;;;;;;;4.03;77.29;100561.56;5035027;28;20067;-78
2022/01/28 01:11:20;;;;;;;29.00;3.15;;;;;;;3.95;77.44;100562.16;5051628;28;19913;-76
2022/01/28 01:13:46;;;;;;;23.05;4.13;;;;;;;3.94;77.24;100564.94;5051121;28;20092;-78
2022/01/28 01:16:14;;;;;;;27.77;6.10;;;;;;;3.99;77.61;100591.81;5052737;28;20067;-78
2022/01/28 01:18:50;;;;;;;19.95;4.20;;;;;;;3.80;77.68;100595.94;5035126;28;20025;-78
2022/01/28 01:21:22;;;;;;;21.98;4.55;;;;;;;3.93;77.88;100639.84;5035037;28;20479;-78
2022/01/28 01:23:53;;;;;;;29.33;3.63;;;;;;;3.99;77.82;100640.22;5052029;28;20033;-78
2022/01/28 01:26:19;;;;;;;21.17;4.03;;;;;;;3.97;77.70;100621.00;5052162;28;20437;-78
2022/01/28 01:28:46;;;;;;;33.88;5.65;;;;;;;4.01;77.88;100663.88;5035581;28;20490;-79
2022/01/28 01:31:16;;;;;;;23.02;4.57;;;;;;;3.96;78.24;100677.44;5052221;28;20305;-75
2022/01/28 01:33:48;;;;;;;30.35;5.20;;;;;;;3.98;78.25;100669.38;5035455;28;20040;-75
2022/01/28 01:36:13;;;;;;;15.88;3.35;;;;;;;3.97;78.34;100688.84;5051934;28;20447;-78
2022/01/28 01:38:40;;;;;;;21.37;3.80;;;;;;;3.89;78.48;100696.53;5052172;28;20021;-78
2022/01/28 01:41:12;;;;;;;17.38;2.95;;;;;;;3.92;78.58;100706.88;5054038;28;20033;-78
2022/01/28 01:46:38;;;;;;;21.42;4.55;;;;;;;3.93;78.28;100716.44;5053763;28;20119;-77
2022/01/28 01:52:04;;;;;;;23.58;3.25;;;;;;;3.94;78.59;100748.03;5050228;28;20036;-77
2022/01/28 01:54:37;;;;;;;21.63;4.00;;;;;;;3.92;78.32;100728.81;5031064;28;20028;-75
2022/01/28 01:57:05;;;;;;;21.80;4.85;;;;;;;3.88;78.34;100737.09;5048095;28;20044;-78
2022/01/28 01:59:30;;;;;;;19.50;3.65;;;;;;;3.77;78.62;100736.16;5048297;28;20413;-76
2022/01/28 02:01:56;;;;;;;17.80;4.43;;;;;;;3.77;78.66;100773.13;5030806;28;20086;-78
2022/01/28 02:04:22;;;;;;;21.40;4.13;;;;;;;3.75;78.55;100746.00;5047011;28;20037;-76
2022/01/28 02:06:49;;;;;;;21.10;4.53;;;;;;;3.69;78.88;100749.09;5047297;28;20041;-75
2022/01/28 02:09:14;;;;;;;15.75;3.80;;;;;;;3.71;78.88;100770.09;5048657;28;20080;-77
2022/01/28 02:11:41;;;;;;;22.13;5.13;;;;;;;3.76;78.95;100770.59;5047503;28;20063;-76
2022/01/28 02:14:06;;;;;;;19.55;4.75;;;;;;;3.67;79.20;100787.97;5048419;28;20901;-75
2022/01/28 02:16:31;;;;;;;31.57;9.20;;;;;;;3.63;79.37;100818.22;5047125;28;20029;-74
2022/01/28 02:18:57;;;;;;;28.63;5.77;;;;;;;3.62;79.83;100857.94;5047231;28;20287;-76
2022/01/28 02:21:23;;;;;;;32.10;4.82;;;;;;;3.64;79.96;100848.94;5047305;28;20119;-77
2022/01/28 02:23:54;;;;;;;23.42;4.72;;;;;;;3.66;80.14;100873.44;5046867;28;20037;-75
2022/01/28 02:26:20;;;;;;;18.38;4.35;;;;;;;3.67;80.08;100882.19;5047178;28;20094;-76
2022/01/28 02:28:49;;;;;;;24.75;3.75;;;;;;;3.66;80.42;100891.09;5047254;28;20036;-76
2022/01/28 02:31:21;;;;;;;46.38;5.72;;;;;;;3.59;80.82;100919.72;5030287;28;20041;-77
2022/01/28 02:33:49;;;;;;;21.50;4.00;;;;;;;3.57;80.95;100926.91;5046648;28;20083;-75
2022/01/28 02:36:14;;;;;;;27.63;5.03;;;;;;;3.59;81.01;100941.69;5048754;28;20481;-76
2022/01/28 02:38:39;;;;;;;34.00;5.97;;;;;;;3.58;81.29;100947.06;5049052;28;20120;-78
2022/01/28 02:41:06;;;;;;;17.67;3.37;;;;;;;3.71;81.10;100973.44;5030762;28;20283;-77
2022/01/28 02:46:04;;;;;;;33.93;6.87;;;;;;;3.61;80.93;100975.06;5046748;28;20028;-77
2022/01/28 02:48:31;;;;;;;35.72;5.68;;;;;;;3.62;81.08;100985.50;5065764;28;20051;-77
2022/01/28 02:53:55;;;;;;;17.52;4.03;;;;;;;3.55;81.44;100985.09;5034151;28;20566;-76
2022/01/28 02:56:31;;;;;;;29.88;5.55;;;;;;;3.49;81.24;100975.00;5047380;28;20037;-76
2022/01/28 02:58:57;;;;;;;21.92;4.55;;;;;;;3.60;80.78;100976.84;5063659;28;20041;-76
2022/01/28 03:01:23;;;;;;;23.05;4.30;;;;;;;3.41;80.86;100955.41;5064142;28;20086;-75
2022/01/28 03:03:50;;;;;;;22.48;4.88;;;;;;;3.46;80.77;100977.00;5047991;28;20042;-76
2022/01/28 03:06:19;;;;;;;15.50;4.05;;;;;;;3.56;80.22;100976.25;5046763;28;20025;-77
2022/01/28 03:08:57;;;;;;;28.33;4.32;;;;;;;3.47;80.08;100923.28;5030570;28;20083;-77
2022/01/28 03:16:53;;;;;;;16.95;3.65;;;;;;;3.42;78.63;100867.31;5050781;28;20045;-76
2022/01/28 03:19:20;;;;;;;26.50;5.20;;;;;;;3.50;77.93;100849.13;5068456;28;20040;-78
2022/01/28 03:21:54;;;;;;;;;;;;;;;3.44;77.57;100831.09;5035019;28;20020;-77
2022/01/28 03:24:20;;;;;;;24.23;3.72;;;;;;;3.45;77.16;100807.25;5050269;28;19912;-78
2022/01/28 03:26:49;;;;;;;15.15;3.13;;;;;;;3.30;77.24;100809.25;5050731;28;20025;-78
2022/01/28 03:29:14;;;;;;;23.88;4.85;;;;;;;3.33;77.25;100819.56;5051159;28;20067;-76
2022/01/28 03:31:40;;;;;;;24.07;5.50;;;;;;;3.24;77.15;100820.25;5034002;28;20029;-77
2022/01/28 03:34:06;;;;;;;23.97;4.20;;;;;;;3.32;76.49;100803.81;5050491;28;20033;-77
2022/01/28 03:36:31;;;;;;;15.25;3.85;;;;;;;3.31;76.12;100797.72;5051496;28;20070;-76
2022/01/28 03:38:57;;;;;;;25.65;4.78;;;;;;;3.25;76.18;100795.53;5050225;28;20094;-76
2022/01/28 03:41:24;;;;;;;23.20;4.07;;;;;;;3.30;76.02;100790.78;5051551;28;20040;-76
2022/01/28 03:43:50;;;;;;;13.82;3.08;;;;;;;3.34;75.71;100799.28;5049681;28;20075;-76
2022/01/28 03:46:15;;;;;;;23.77;5.00;;;;;;;3.31;75.69;100792.44;5051682;28;20052;-77
2022/01/28 03:48:43;;;;;;;20.77;3.85;;;;;;;3.26;75.99;100818.34;5066773;28;20098;-76
2022/01/28 03:51:08;;;;;;;23.17;3.97;;;;;;;3.24;76.17;100835.25;5050971;28;20541;-77
2022/01/28 03:53:34;;;;;;;20.70;4.57;;;;;;;3.19;76.48;100854.03;5073663;22;20519;-75
2022/01/28 03:56:00;;;;;;;28.17;4.03;;;;;;;3.07;77.18;100899.78;5079590;28;20073;-76
2022/01/28 03:58:26;;;;;;;30.45;5.38;;;;;;;3.13;77.16;100925.72;5088451;28;20046;-76
2022/01/28 04:00:53;;;;;;;22.23;5.13;;;;;;;3.15;77.14;100956.31;5088173;28;20077;-76
2022/01/28 04:13:46;;;;;;;30.00;5.00;;;;;;;3.02;78.56;101037.28;5088857;28;20035;-76
2022/01/28 04:16:32;;;;;;;25.92;3.90;;;;;;;2.96;79.06;101082.53;5088945;28;20036;-76
2022/01/28 04:19:01;;;;;;;21.92;3.88;;;;;;;2.99;79.06;101089.41;5088057;28;20032;-76
2022/01/28 04:21:26;;;;;;;30.88;5.55;;;;;;;3.01;78.99;101101.53;5069982;28;20964;-76
2022/01/28 04:23:52;;;;;;;27.50;3.95;;;;;;;3.08;79.08;101112.50;5087280;28;20112;-75
2022/01/28 04:26:17;;;;;;;32.43;4.60;;;;;;;3.02;78.71;101086.53;5089702;28;20055;-76
2022/01/28 04:28:42;;;;;;;43.63;6.07;;;;;;;3.08;78.23;101086.97;5088425;28;20507;-76
2022/01/28 04:31:08;;;;;;;28.10;3.90;;;;;;;3.06;77.72;101037.91;5087597;28;20024;-75
2022/01/28 04:33:33;;;;;;;34.37;4.57;;;;;;;3.01;77.54;101013.63;5087682;28;20043;-75
2022/01/28 04:35:58;;;;;;;25.60;4.20;;;;;;;3.03;77.23;101012.59;5087627;28;20031;-75
2022/01/28 04:38:49;;;;;;;31.20;7.37;;;;;;;3.05;76.88;101002.78;5087372;28;20036;-76
2022/01/28 04:41:25;;;;;;;16.20;3.05;;;;;;;3.05;76.53;100991.38;5070484;28;20305;-75
2022/01/28 04:43:59;;;;;;;17.98;3.55;;;;;;;2.95;76.25;100970.91;5087300;28;20904;-76
2022/01/28 04:46:37;;;;;;;22.63;3.85;;;;;;;2.95;75.97;100964.81;5087393;28;20040;-75
2022/01/28 04:49:15;;;;;;;33.22;3.95;;;;;;;3.02;75.59;100952.00;5087389;28;20086;-76
2022/01/28 04:54:34;;;;;;;15.35;3.90;;;;;;;3.09;75.59;100962.03;5086892;28;20062;-76
2022/01/28 04:57:23;;;;;;;17.45;4.30;;;;;;;3.11;75.04;100932.88;5087204;28;20044;-76
2022/01/28 05:00:05;;;;;;;23.35;4.88;;;;;;;3.03;75.16;100929.97;5087427;28;20047;-75
2022/01/28 05:05:41;;;;;;;19.70;4.18;;;;;;;3.06;74.73;100932.38;5086720;28;20039;-75
2022/01/28 05:16:13;;;;;;;26.83;4.70;;;;;;;2.97;74.63;100976.06;5086536;28;20085;-75
2022/01/28 05:26:37;;;;;;;29.48;4.55;;;;;;;2.84;74.14;100943.63;5066061;28;20055;-77
2022/01/28 05:29:04;;;;;;;19.25;2.80;;;;;;;2.77;74.37;100940.56;5051355;28;20029;-76
2022/01/28 05:31:29;;;;;;;;;;;;;;;2.82;74.12;100953.44;5054564;28;20032;-76
2022/01/28 05:33:54;;;;;;;24.08;4.40;;;;;;;2.68;74.52;100952.59;5038473;28;20293;-76
2022/01/28 05:36:20;;;;;;;30.10;3.72;;;;;;;2.65;74.54;100983.59;5045984;28;20542;-76
2022/01/28 05:38:45;;;;;;;23.73;6.35;;;;;;;2.59;74.29;100968.19;5048372;28;20037;-75
2022/01/28 05:41:11;;;;;;;21.23;4.70;;;;;;;2.63;74.66;100998.69;5048830;28;20028;-76
2022/01/28 05:43:36;;;;;;;22.67;3.58;;;;;;;2.71;74.32;101009.53;5056073;28;20037;-75
2022/01/28 05:46:02;;;;;;;33.92;5.35;;;;;;;2.70;73.99;100987.59;5046335;28;20024;-76
2022/01/28 05:48:27;;;;;;;17.10;2.90;;;;;;;2.73;74.05;100999.72;5046337;28;20048;-76
2022/01/28 05:50:52;;;;;;;25.80;4.10;;;;;;;2.77;73.67;100998.56;5029398;28;20271;-75
2022/01/28 05:53:18;;;;;;;34.60;4.00;;;;;;;2.62;74.08;100976.75;5046864;28;20033;-75
2022/01/28 05:55:43;;;;;;;22.33;5.47;;;;;;;2.61;74.13;101013.75;5045706;28;20489;-75
2022/01/28 05:58:09;;;;;;;42.60;6.03;;;;;;;2.61;74.17;101021.66;5045786;28;20048;-75
2022/01/28 06:00:34;;;;;;;32.43;3.83;;;;;;;2.53;74.31;101017.75;5028649;28;20048;-76
2022/01/28 06:03:00;;;;;;;20.80;3.63;;;;;;;2.67;74.22;101047.59;5046936;28;20286;-75
2022/01/28 06:05:30;;;;;;;22.50;5.07;;;;;;;2.56;74.24;101031.69;5046571;28;20358;-75
2022/01/28 06:07:57;;;;;;;34.70;5.10;;;;;;;2.56;74.32;101064.16;5046979;28;20302;-76
2022/01/28 06:10:23;;;;;;;18.63;3.35;;;;;;;2.52;74.48;101058.22;5045743;28;20023;-75
2022/01/28 06:12:48;;;;;;;23.08;3.10;;;;;;;2.64;74.51;101092.63;5045844;28;20037;-75
2022/01/28 06:15:15;;;;;;;31.10;3.65;;;;;;;2.51;74.63;101072.38;5028591;28;20049;-76
2022/01/28 06:17:41;;;;;;;31.05;3.75;;;;;;;2.58;74.66;101108.88;5028919;28;20029;-76
2022/01/28 06:20:09;;;;;;;25.27;3.53;;;;;;;2.57;74.57;101093.97;5028799;28;20059;-75
2022/01/28 06:22:42;;;;;;;31.67;6.03;;;;;;;2.58;74.95;101128.16;5028781;28;20628;-76
2022/01/28 06:25:10;;;;;;;28.38;4.38;;;;;;;2.49;74.73;101116.44;5044907;28;20044;-75
2022/01/28 06:27:35;;;;;;;28.83;3.78;;;;;;;2.48;75.05;101125.28;5046800;28;20024;-76
2022/01/28 06:30:04;;;;;;;21.50;3.70;;;;;;;2.52;75.29;101173.38;5027890;28;20041;-76
2022/01/28 06:32:29;;;;;;;21.98;4.03;;;;;;;2.44;75.36;101173.88;5044657;28;20028;-75
2022/01/28 06:34:55;;;;;;;22.70;4.07;;;;;;;2.43;75.60;101187.13;5034230;28;20379;-76
2022/01/28 06:37:20;;;;;;;22.07;5.30;;;;;;;2.42;75.69;101204.75;5040786;28;20041;-76
2022/01/28 06:39:46;;;;;;;30.80;4.40;;;;;;;2.30;75.76;101192.38;5059755;28;20036;-76
2022/01/28 06:42:11;;;;;;;24.07;3.73;;;;;;;2.16;76.44;101197.66;5040538;28;20282;-73
2022/01/28 06:44:36;;;;;;;24.13;3.67;;;;;;;2.26;76.81;101277.81;5057092;28;20035;-75
2022/01/28 06:47:02;;;;;;;19.27;3.93;;;;;;;2.24;76.81;101262.09;5045228;28;20095;-75
2022/01/28 06:49:27;;;;;;;22.02;5.43;;;;;;;2.19;76.95;101279.97;5059955;28;20486;-75
2022/01/28 06:51:52;;;;;;;20.00;5.87;;;;;;;2.06;77.32;101287.81;5048443;28;20033;-76
2022/01/28 06:54:18;;;;;;;32.63;4.37;;;;;;;2.05;77.46;101290.53;5051961;28;20124;-75
2022/01/28 06:56:44;;;;;;;31.00;3.90;;;;;;;2.30;77.23;101340.75;5066216;28;20520;-76
2022/01/28 06:59:11;;;;;;;19.77;5.13;;;;;;;2.15;77.40;101306.59;5065947;28;20274;-75
2022/01/28 07:01:37;;;;;;;27.92;7.13;;;;;;;2.22;77.46;101334.25;5048356;28;20143;-75
2022/01/28 07:04:02;;;;;;;32.85;5.88;;;;;;;2.19;77.35;101331.81;5065172;28;20116;-76
2022/01/28 07:06:28;;;;;;;23.30;4.68;;;;;;;2.21;77.38;101338.69;5065363;28;20028;-76
2022/01/28 07:08:53;;;;;;;26.57;5.73;;;;;;;2.06;77.81;101322.03;5036697;28;20510;-76
2022/01/28 07:11:19;;;;;;;28.87;6.80;;;;;;;2.02;78.10;101362.66;5028478;28;20266;-76
2022/01/28 07:13:44;;;;;;;24.00;4.33;;;;;;;2.03;78.30;101381.94;5027947;28;20028;-76
2022/01/28 07:16:09;;;;;;;26.77;3.90;;;;;;;2.09;78.07;101402.66;5028239;28;20785;-76
2022/01/28 07:18:35;;;;;;;22.38;3.50;;;;;;;2.11;77.90;101395.53;5045173;28;20037;-76
2022/01/28 07:21:01;;;;;;;27.33;5.27;;;;;;;2.05;78.12;101415.16;5045096;28;20029;-76
2022/01/28 07:23:26;;;;;;;18.15;2.88;;;;;;;2.02;78.14;101412.72;5044853;28;20064;-76
2022/01/28 07:25:51;;;;;;;18.13;3.13;;;;;;;2.20;78.02;101437.13;5044193;28;20033;-75
2022/01/28 07:28:17;;;;;;;27.17;6.07;;;;;;;2.17;77.72;101420.63;5046008;28;20052;-76
2022/01/28 07:30:42;;;;;;;23.60;3.30;;;;;;;2.10;77.71;101397.28;5028045;28;20032;-77
2022/01/28 07:33:10;;;;;;;17.45;3.97;;;;;;;2.16;77.88;101430.34;5044699;28;20033;-76
2022/01/28 07:35:35;;;;;;;32.60;6.60;;;;;;;2.10;78.06;101433.31;5045630;28;20112;-75
2022/01/28 07:38:01;;;;;;;29.48;5.22;;;;;;;2.15;77.98;101469.94;5044850;28;20147;-76
2022/01/28 07:40:26;;;;;;;22.10;4.67;;;;;;;2.08;77.80;101457.16;5044691;28;20055;-76
2022/01/28 07:42:52;;;;;;;28.73;5.72;;;;;;;2.12;78.23;101478.88;5044730;28;20072;-75
2022/01/28 07:45:17;;;;;;;15.07;3.28;;;;;;;2.07;78.48;101494.09;5028051;28;20036;-76
2022/01/28 07:47:44;;;;;;;22.33;4.25;;;;;;;2.32;78.22;101525.13;5044574;28;20029;-75
2022/01/28 07:50:10;;;;;;;;;;;;;;;2.40;78.17;101529.94;5046020;28;20071;-76
2022/01/28 07:52:36;;;;;;;17.50;5.45;;;;;;;2.48;77.63;101510.13;5044644;28;19913;-76
2022/01/28 07:55:03;;;;;;;37.67;4.97;;;;;;;2.69;77.07;101533.47;5044102;28;20063;-76
2022/01/28 07:57:30;;;;;;;25.27;5.43;;;;;;;2.70;76.50;101466.63;5031977;28;20494;-76
2022/01/28 07:59:55;;;;;;;27.80;4.95;;;;;;;2.73;76.64;101466.44;5065266;28;20478;-75
2022/01/28 08:02:20;;;;;;;19.23;3.80;;;;;;;2.91;76.31;101469.72;5067356;28;20098;-76
2022/01/28 08:04:46;;;;;;;27.37;4.03;;;;;;;3.06;75.69;101476.66;5066895;28;20059;-75
2022/01/28 08:07:11;;;;;;;25.37;4.03;;;;;;;3.22;74.90;101444.06;5050280;28;20282;-76
2022/01/28 08:09:37;;;;;;;25.70;7.17;;;;;;;3.32;74.03;101400.28;5068064;28;20025;-75
2022/01/28 08:12:02;;;;;;;25.13;5.28;;;;;;;3.44;73.47;101378.38;5068389;28;20071;-76
2022/01/28 08:14:30;;;;;;;31.23;5.53;;;;;;;3.86;72.80;101394.09;5068556;28;20035;-76
2022/01/28 08:16:56;;;;;;;23.52;3.42;;;;;;;3.97;72.48;101400.34;5069867;28;20846;-76
2022/01/28 08:19:21;;;;;;;26.08;3.92;;;;;;;4.12;71.42;101340.34;5051581;28;20036;-75
2022/01/28 08:21:47;;;;;;;23.43;4.60;;;;;;;4.12;70.62;101279.56;5068205;28;20076;-76
2022/01/28 08:24:12;;;;;;;25.63;4.13;;;;;;;4.33;70.00;101284.25;5067816;28;20037;-76
2022/01/28 08:26:37;;;;;;;24.97;5.57;;;;;;;4.64;69.62;101312.00;5068323;28;20154;-76
2022/01/28 08:29:05;;;;;;;26.47;5.30;;;;;;;4.94;68.46;101285.13;5051559;28;20059;-76
2022/01/28 08:31:31;;;;;;;28.75;5.70;;;;;;;4.96;67.51;101198.53;5051547;28;20024;-76
2022/01/28 08:33:56;;;;;;;12.73;3.25;;;;;;;4.97;67.62;101218.75;5050958;28;20024;-76
2022/01/28 08:36:22;;;;;;;25.97;4.33;;;;;;;5.62;66.46;101274.75;5069142;28;20101;-75
2022/01/28 08:38:49;;;;;;;15.97;3.87;;;;;;;5.70;65.28;101156.66;5069068;28;20114;-75
2022/01/28 08:41:15;;;;;;;23.02;4.38;;;;;;;6.13;64.05;101168.31;5051111;28;20032;-76
2022/01/28 08:43:41;;;;;;;21.73;5.28;;;;;;;6.20;63.54;101129.72;5067454;28;20808;-76
2022/01/28 08:46:07;;;;;;;18.30;3.45;;;;;;;6.56;62.41;101114.44;5051134;28;20044;-75
2022/01/28 08:48:32;;;;;;;13.95;2.90;;;;;;;6.66;62.49;101141.88;5067861;28;20517;-76
2022/01/28 08:50:58;;;;;;;19.85;3.95;;;;;;;7.11;61.12;101090.34;5050905;28;20031;-76
2022/01/28 08:53:23;;;;;;;21.08;5.55;;;;;;;7.40;60.30;101069.25;5067347;28;20028;-77
2022/01/28 08:55:49;;;;;;;12.70;2.67;;;;;;;6.96;59.55;100951.81;5067444;28;20036;-76
2022/01/28 08:58:15;;;;;;;18.27;4.33;;;;;;;7.23;59.56;101038.81;5048277;28;20044;-76
2022/01/28 09:00:45;;;;;;;17.30;3.15;;;;;;;7.13;59.33;101001.63;5048644;28;20041;-76
2022/01/28 09:03:14;;;;;;;28.90;5.13;;;;;;;6.80;59.89;100976.19;5030928;28;20617;-76
2022/01/28 09:05:40;;;;;;;18.60;3.65;;;;;;;7.45;59.22;101096.25;5047101;28;20577;-76
2022/01/28 09:08:08;;;;;;;16.63;3.77;;;;;;;7.00;59.17;100987.75;5046759;28;20040;-76
2022/01/28 09:10:41;;;;;;;20.73;3.90;;;;;;;7.10;59.08;100975.34;5047015;28;20051;-76
2022/01/28 09:15:40;;;;;;;16.30;3.00;;;;;;;8.13;57.16;100978.56;5048005;28;20024;-76
2022/01/28 09:18:07;;;;;;;11.93;3.28;;;;;;;8.42;56.55;101048.56;5046990;28;20037;-76
2022/01/28 09:20:34;;;;;;;23.60;4.78;;;;;;;8.60;56.02;100991.97;5030262;28;20025;-76
2022/01/28 09:23:01;;;;;;;21.92;4.75;;;;;;;8.60;55.80;101005.28;5046920;28;20494;-76
2022/01/28 09:25:27;;;;;;;18.75;3.63;;;;;;;9.22;54.60;100974.50;5046611;28;20124;-76
2022/01/28 09:27:52;;;;;;;11.05;3.28;;;;;;;8.74;54.13;100852.25;5044978;28;20108;-76
2022/01/28 09:30:18;;;;;;;19.00;3.90;;;;;;;8.27;55.62;100954.19;5028658;28;20842;-76
2022/01/28 09:32:44;;;;;;;13.70;4.05;;;;;;;8.66;55.67;101055.28;5028260;28;20437;-75
2022/01/28 09:35:09;;;;;;;15.10;3.58;;;;;;;8.71;55.60;101037.06;5027926;28;20036;-76
2022/01/28 09:37:35;;;;;;;17.60;3.17;;;;;;;9.13;55.11;101079.28;5027785;28;20510;-76
2022/01/28 09:40:02;;;;;;;21.80;3.35;;;;;;;10.17;53.40;101111.03;5044697;28;20311;-76
2022/01/28 09:42:31;;;;;;;16.92;3.88;;;;;;;10.37;52.30;101015.69;5044997;28;20043;-76
2022/01/28 09:44:59;;;;;;;15.38;3.25;;;;;;;9.85;52.34;100916.84;5029217;28;20937;-76
2022/01/28 09:47:25;;;;;;;16.38;3.38;;;;;;;10.00;52.27;100946.50;5045996;28;20037;-76
2022/01/28 09:49:51;;;;;;;19.77;4.18;;;;;;;9.40;53.05;100889.28;5047310;28;20024;-78
2022/01/28 09:52:18;;;;;;;25.70;3.67;;;;;;;8.66;53.95;100837.00;5046013;28;20033;-76
2022/01/28 09:54:46;;;;;;;14.05;3.90;;;;;;;8.94;54.53;101048.19;5083650;22;20044;-78
2022/01/28 09:57:16;;;;;;;14.68;2.88;;;;;;;9.64;54.05;101128.59;5082568;28;20085;-79
2022/01/28 09:59:41;;;;;;;21.98;3.75;;;;;;;8.85;53.90;100932.78;5089529;28;20121;-80
2022/01/28 10:02:08;;;;;;;12.50;3.70;;;;;;;9.36;54.35;101097.56;5072854;28;20119;-79
2022/01/28 10:04:33;;;;;;;22.55;3.40;;;;;;;9.12;54.03;101007.50;5072611;28;20043;-78
2022/01/28 10:07:09;;;;;;;16.17;4.03;;;;;;;10.08;52.95;101102.09;5090897;28;20036;-79
2022/01/28 10:09:34;;;;;;;17.45;3.15;;;;;;;9.02;53.14;100890.38;5090026;28;20477;-79
2022/01/28 10:12:13;;;;;;;22.30;3.33;;;;;;;9.13;54.18;101060.66;5072430;28;20020;-78
2022/01/28 10:14:59;;;;;;;14.15;2.97;;;;;;;9.72;53.59;101130.53;5072252;28;20043;-80
2022/01/28 10:17:24;;;;;;;17.92;3.92;;;;;;;9.81;52.85;101051.47;5090752;28;20039;-79
2022/01/28 10:19:50;;;;;;;17.83;2.37;;;;;;;9.17;54.23;101031.88;5071270;28;20020;-78
2022/01/28 10:22:19;;;;;;;11.37;3.17;;;;;;;9.46;53.30;101024.59;5090281;28;20047;-79
2022/01/28 10:24:45;;;;;;;12.43;2.45;;;;;;;9.59;53.41;101071.38;5076807;28;20047;-80
2022/01/28 10:27:16;;;;;;;18.55;3.33;;;;;;;9.68;53.05;101076.66;5059128;28;20044;-80
2022/01/28 10:29:43;;;;;;;15.15;3.33;;;;;;;10.27;52.02;101069.09;5066251;28;20090;-80
2022/01/28 10:32:14;;;;;;;9.98;3.00;;;;;;;10.32;51.63;101028.66;5032487;28;20044;-80
2022/01/28 10:34:45;;;;;;;17.33;4.18;;;;;;;10.50;52.10;101125.56;5033521;28;20131;-80
2022/01/28 10:37:16;;;;;;;15.25;3.42;;;;;;;10.65;51.70;101066.28;5051778;28;20051;-81
2022/01/28 10:39:45;;;;;;;10.95;1.98;;;;;;;10.19;50.92;100892.94;5052236;28;20081;-79
2022/01/28 10:42:16;;;;;;;16.85;3.03;;;;;;;10.39;51.14;100959.47;5052942;28;20103;-83
2022/01/28 10:44:57;;;;;;;12.07;3.60;;;;;;;10.97;51.55;101141.31;5055056;28;20478;-78
2022/01/28 10:47:37;;;;;;;13.45;3.53;;;;;;;11.41;50.18;101081.63;5049456;28;20044;-79
2022/01/28 10:50:23;;;;;;;14.25;2.90;;;;;;;10.34;49.53;100781.97;5033082;28;20048;-79
2022/01/28 10:53:12;;;;;;;17.40;3.05;;;;;;;10.08;51.36;100941.22;5033015;28;20041;-77
2022/01/28 10:55:40;;;;;;;12.15;2.25;;;;;;;10.65;51.00;101056.47;5049397;28;20040;-79
2022/01/28 10:58:11;;;;;;;9.85;3.00;;;;;;;11.11;49.79;100994.78;5049636;28;20028;-79
2022/01/28 11:00:42;;;;;;;11.05;2.55;;;;;;;11.28;49.39;100983.16;5054000;28;20533;-83
2022/01/28 11:03:13;;;;;;;16.33;2.95;;;;;;;11.08;49.50;100965.72;5069994;28;20059;-81
2022/01/28 11:05:40;;;;;;;15.75;3.00;;;;;;;11.03;49.67;100938.63;5069444;28;20040;-78
2022/01/28 11:08:07;;;;;;;;;;;;;;;11.13;49.35;100952.72;5053921;28;20501;-80
2022/01/28 11:10:33;;;;;;;17.15;3.25;;;;;;;10.46;50.18;100917.81;5052502;28;19982;-80
2022/01/28 11:13:00;;;;;;;15.18;3.30;;;;;;;10.95;49.66;100972.34;5052724;28;20501;-80
2022/01/28 11:15:27;;;;;;;17.95;2.70;;;;;;;10.55;49.54;100844.81;5052615;28;20035;-79
2022/01/28 11:17:53;;;;;;;11.80;2.25;;;;;;;9.93;50.87;100907.09;5052214;28;20555;-79
2022/01/28 11:20:23;;;;;;;19.63;3.35;;;;;;;10.18;51.04;100986.47;5067846;28;20041;-79
2022/01/28 11:23:17;;;;;;;10.43;2.35;;;;;;;10.69;50.55;101056.97;5052021;28;20025;-78
2022/01/28 11:25:59;;;;;;;10.85;1.85;;;;;;;10.75;48.85;100859.59;5051866;28;20074;-79
2022/01/28 11:28:42;;;;;;;9.85;2.72;;;;;;;10.16;49.26;100762.53;5051134;28;20033;-78
2022/01/28 11:31:09;;;;;;;12.65;2.85;;;;;;;10.08;50.19;100875.34;5070114;28;20021;-78
2022/01/28 11:33:49;;;;;;;11.13;2.63;;;;;;;10.08;49.83;100862.00;5072518;28;20089;-79
2022/01/28 11:36:31;;;;;;;15.02;2.78;;;;;;;10.26;50.48;100997.22;5057127;28;20048;-79
2022/01/28 11:38:56;;;;;;;9.95;2.78;;;;;;;10.76;49.27;101012.63;5052129;28;20655;-78
2022/01/28 11:41:26;;;;;;;7.67;1.93;;;;;;;11.09;49.57;101101.81;5035191;28;20029;-79
2022/01/28 11:43:54;;;;;;;10.20;2.10;;;;;;;11.20;48.53;101001.84;5045663;28;20028;-77
2022/01/28 11:46:28;;;;;;;10.25;2.30;;;;;;;10.84;48.42;100878.28;5051378;28;20044;-79
2022/01/28 11:48:57;;;;;;;9.60;2.20;;;;;;;11.44;48.55;101061.75;5054772;28;20033;-79
2022/01/28 11:51:35;;;;;;;11.93;3.08;;;;;;;11.97;48.04;101088.22;5053835;28;20024;-78
2022/01/28 11:54:08;;;;;;;14.27;2.42;;;;;;;11.50;46.72;100799.94;5052621;28;20032;-81
2022/01/28 11:56:38;;;;;;;7.13;2.00;;;;;;;11.66;47.40;100954.22;5062638;28;20032;-78
2022/01/28 11:59:08;;;;;;;10.98;2.72;;;;;;;11.55;46.93;100850.25;5054276;28;20024;-81
2022/01/28 12:01:39;;;;;;;9.48;2.00;;;;;;;11.47;46.56;100794.06;5044261;28;20094;-80
2022/01/28 12:04:24;;;;;;;16.35;2.35;;;;;;;10.23;47.79;100639.97;5068983;28;20037;-78
2022/01/28 12:06:59;;;;;;;12.25;2.78;;;;;;;10.78;49.05;100971.41;5053432;28;20041;-79
2022/01/28 12:09:26;;;;;;;13.23;2.33;;;;;;;10.66;48.64;100903.25;5053202;28;20036;-78
2022/01/28 12:11:52;;;;;;;10.77;1.80;;;;;;;11.09;49.56;101101.81;5053385;28;20055;-78
2022/01/28 12:14:38;;;;;;;14.25;3.47;;;;;;;11.14;47.76;100933.88;5052801;28;20064;-78
2022/01/28 12:17:29;;;;;;;12.25;2.83;;;;;;;11.48;48.23;101068.47;5068793;28;20064;-78
2022/01/28 12:20:23;;;;;;;9.85;2.90;;;;;;;11.51;47.16;100916.56;5052323;28;20040;-78
2022/01/28 12:23:09;;;;;;;10.68;2.30;;;;;;;12.01;46.69;101020.00;5052603;28;20375;-79
2022/01/28 12:25:40;;;;;;;11.88;2.78;;;;;;;12.32;46.52;101042.63;5044826;28;20559;-79
2022/01/28 12:28:22;;;;;;;10.32;2.08;;;;;;;11.70;46.20;100803.09;5052256;28;20064;-80
2022/01/28 12:31:01;;;;;;;8.93;2.42;;;;;;;11.30;46.16;100740.63;5052441;28;20032;-77
2022/01/28 12:33:30;;;;;;;8.35;2.15;;;;;;;11.39;46.88;100856.41;5052422;28;20039;-79
2022/01/28 12:35:59;;;;;;;13.18;2.42;;;;;;;10.99;46.62;100740.44;5037724;28;20039;-81
2022/01/28 12:38:30;;;;;;;11.27;2.58;;;;;;;11.29;46.85;100880.63;5032352;28;20068;-78
2022/01/28 12:40:58;;;;;;;10.35;2.20;;;;;;;12.03;46.54;101050.13;5031412;28;20479;-78
2022/01/28 12:43:24;;;;;;;14.60;3.42;;;;;;;11.53;46.53;100922.59;5030132;28;20048;-79
2022/01/28 12:46:03;;;;;;;9.32;2.63;;;;;;;11.49;46.02;100846.38;5064155;28;20029;-78